Gilbertville, Iowa
Current Conditions -  °F | °C
As of 6:19 AM on Monday 22 Dec 2014 (Local Time) from KALO Reporting Station
Light Rain Light Rain  
Wind Chill: 27°   Ceiling: 2000
Heat Index: 36°   Visibility: 6mi
Dew Point: 34°   Wind: 15mph
Humidity: 93%   Direction: 150°SSE
Pressure: 29.71"   Gusts: NA
Location:  42.42°N, 92.21°W
Report Text: KALO 221219Z AUTO 15013KT 6SM -RA BR FEW011 BKN020 OVC040 02/01 A2971 RMK AO2 RAB19 P0000 T00220011
Loading
Personal Weather Stations






























Interactive Weather Map New forecast layout! Learn more

10-Day Weather Forecast

Advertisements
Track Severe Weather on mobile